Time;durP1;ratioP1;P1;durP2;ratioP2;P2;SDS_P1;SDS_P2;PMS_P1;PMS_P2;Temp;Humidity;BMP_temperature;BMP_pressure;BME280_temperature;BME280_humidity;BME280_pressure;Samples;Min_cycle;Max_cycle;Signal;HPM_P1;HPM_P2
2022/06/21 00:00:32;;;;;;;1999.90;999.90;;;15.60;99.90;;;;;;4974913;28;20872;-74
2022/06/21 00:03:08;;;;;;;1999.90;999.90;;;15.60;99.90;;;;;;4975286;28;20408;-74
2022/06/21 00:05:37;;;;;;;1999.90;999.90;;;15.60;99.90;;;;;;4975102;28;20406;-73
2022/06/21 00:08:11;;;;;;;1999.90;999.90;;;15.60;99.90;;;;;;4974153;28;20414;-74
2022/06/21 00:10:37;;;;;;;1999.90;999.90;;;15.50;99.90;;;;;;4974858;28;20505;-74
2022/06/21 00:13:07;;;;;;;1999.90;999.90;;;15.50;99.90;;;;;;4974979;28;20847;-74
2022/06/21 00:15:32;;;;;;;1999.90;999.90;;;15.50;99.90;;;;;;4975193;28;20403;-74
2022/06/21 00:17:58;;;;;;;1999.90;999.90;;;15.40;99.90;;;;;;4976262;28;20445;-74
2022/06/21 00:20:25;;;;;;;1999.90;999.90;;;15.40;99.90;;;;;;4975097;28;20630;-74
2022/06/21 00:22:51;;;;;;;1999.90;999.90;;;15.30;99.90;;;;;;4976331;28;20580;-74
2022/06/21 00:25:26;;;;;;;1999.90;999.90;;;15.20;99.90;;;;;;4976346;28;20415;-74
2022/06/21 00:27:54;;;;;;;1999.90;999.90;;;15.10;99.90;;;;;;4976318;28;20408;-74
2022/06/21 00:30:20;;;;;;;1999.90;999.90;;;15.10;99.90;;;;;;4975798;28;20460;-74
2022/06/21 00:32:48;;;;;;;1999.90;999.90;;;15.10;99.90;;;;;;4978419;28;20432;-74
2022/06/21 00:35:17;;;;;;;1999.90;999.90;;;15.10;99.90;;;;;;4976531;28;20438;-74
2022/06/21 00:37:43;;;;;;;1999.90;999.90;;;15.20;99.90;;;;;;4976644;28;20402;-74
2022/06/21 00:40:27;;;;;;;1999.90;999.90;;;15.10;99.90;;;;;;4975782;28;20460;-74
2022/06/21 00:43:14;;;;;;;1999.90;999.90;;;15.10;99.90;;;;;;4975494;28;20411;-74
2022/06/21 00:45:43;;;;;;;1999.90;999.90;;;15.10;99.90;;;;;;4974585;28;20445;-73
2022/06/21 00:48:23;;;;;;;1999.90;999.90;;;15.00;99.90;;;;;;4975358;28;20405;-74
2022/06/21 00:50:54;;;;;;;1999.90;999.90;;;14.90;99.90;;;;;;4975810;28;20430;-74
2022/06/21 00:53:30;;;;;;;1999.90;999.90;;;14.90;99.90;;;;;;4976022;28;20408;-73
2022/06/21 00:56:05;;;;;;;1999.90;999.90;;;14.80;99.90;;;;;;4975665;28;20408;-73
2022/06/21 00:58:31;;;;;;;1999.90;999.90;;;14.70;99.90;;;;;;4975801;28;20401;-73
2022/06/21 01:01:18;;;;;;;1999.90;999.90;;;14.60;99.90;;;;;;4975724;28;20789;-73
2022/06/21 01:04:10;;;;;;;1999.90;999.90;;;14.60;99.90;;;;;;4975465;28;20187;-73
2022/06/21 01:06:40;;;;;;;1999.90;999.90;;;14.40;99.90;;;;;;4975409;28;20421;-73
2022/06/21 01:09:25;;;;;;;1999.90;999.90;;;14.30;99.90;;;;;;4975130;28;20496;-73
2022/06/21 01:11:58;;;;;;;1999.90;999.90;;;14.20;99.90;;;;;;4975174;28;20421;-73
2022/06/21 01:14:26;;;;;;;1999.90;999.90;;;14.20;99.90;;;;;;4975125;28;20404;-73
2022/06/21 01:16:52;;;;;;;1999.90;999.90;;;14.00;99.90;;;;;;4975006;28;20403;-73
2022/06/21 01:19:32;;;;;;;1999.90;999.90;;;14.00;99.90;;;;;;4974127;28;20418;-73
2022/06/21 01:22:05;;;;;;;1999.90;999.90;;;14.10;99.90;;;;;;4974779;28;20431;-73
2022/06/21 01:25:19;;;;;;;1999.90;999.90;;;14.10;99.90;;;;;;4974854;28;20488;-72
2022/06/21 01:27:45;;;;;;;1999.90;999.90;;;14.10;99.90;;;;;;4974365;28;20422;-73
2022/06/21 01:30:11;;;;;;;1999.90;999.90;;;14.00;99.90;;;;;;4974630;28;20510;-73
2022/06/21 01:32:37;;;;;;;1999.90;999.90;;;13.90;99.90;;;;;;4975089;28;20422;-73
2022/06/21 01:35:13;;;;;;;1999.90;999.90;;;13.70;99.90;;;;;;4974787;28;20668;-73
2022/06/21 01:37:40;;;;;;;1999.90;999.90;;;13.60;99.90;;;;;;4974325;28;20430;-73
2022/06/21 01:40:13;;;;;;;1999.90;999.90;;;13.60;99.90;;;;;;4974512;28;20410;-73
2022/06/21 01:42:49;;;;;;;1999.90;999.90;;;13.50;99.90;;;;;;4974745;28;20612;-73
2022/06/21 01:45:28;;;;;;;1999.90;999.90;;;13.40;99.90;;;;;;4974475;28;20432;-73
2022/06/21 01:48:16;;;;;;;1999.90;999.90;;;13.40;99.90;;;;;;4974441;28;20496;-73
2022/06/21 01:50:45;;;;;;;1999.90;999.90;;;13.30;99.90;;;;;;4973798;28;20451;-73
2022/06/21 01:53:13;;;;;;;1999.90;999.90;;;13.30;99.90;;;;;;4974055;28;20405;-73
2022/06/21 01:55:44;;;;;;;1999.90;999.90;;;13.40;99.90;;;;;;4974202;28;20432;-73
2022/06/21 01:58:14;;;;;;;1999.90;999.90;;;13.30;99.90;;;;;;4974098;28;20406;-73
2022/06/21 02:00:46;;;;;;;1999.90;999.90;;;13.40;99.90;;;;;;4974206;28;20417;-73
2022/06/21 02:03:17;;;;;;;1999.90;999.90;;;13.40;99.90;;;;;;4974006;28;20918;-73
2022/06/21 02:05:53;;;;;;;1999.90;999.90;;;13.50;99.90;;;;;;4974023;28;20417;-73
2022/06/21 02:08:22;;;;;;;1999.90;999.90;;;13.60;99.90;;;;;;4974494;28;20389;-73
2022/06/21 02:10:52;;;;;;;1999.90;999.90;;;13.70;99.90;;;;;;4975543;28;20487;-74
2022/06/21 02:13:24;;;;;;;1999.90;999.90;;;13.70;99.90;;;;;;4976046;28;20440;-74
2022/06/21 02:15:56;;;;;;;1999.90;999.90;;;13.70;99.90;;;;;;4975882;28;20402;-73
2022/06/21 02:18:24;;;;;;;1999.90;999.90;;;13.80;99.90;;;;;;4976316;28;20401;-73
2022/06/21 02:20:58;;;;;;;1999.90;999.90;;;13.80;99.90;;;;;;4976194;28;20431;-74
2022/06/21 02:23:25;;;;;;;1999.90;999.90;;;13.80;99.90;;;;;;4976936;28;20465;-73
2022/06/21 02:25:52;;;;;;;1999.90;999.90;;;13.80;99.90;;;;;;4975946;28;20971;-74
2022/06/21 02:28:19;;;;;;;1999.90;999.90;;;13.80;99.90;;;;;;4975805;28;20437;-73
2022/06/21 02:30:47;;;;;;;1999.90;999.90;;;13.70;99.90;;;;;;4977514;28;20462;-74
2022/06/21 02:33:22;;;;;;;1999.90;999.90;;;13.70;99.90;;;;;;4979199;28;20403;-74
2022/06/21 02:35:58;;;;;;;1999.90;999.90;;;13.70;99.90;;;;;;4977147;28;20398;-74
2022/06/21 02:38:29;;;;;;;1999.90;999.90;;;13.60;99.90;;;;;;4976616;28;20411;-74
2022/06/21 02:41:32;;;;;;;1999.90;999.90;;;13.50;99.90;;;;;;4976519;28;20446;-74
2022/06/21 02:44:05;;;;;;;1999.90;999.90;;;13.40;99.90;;;;;;4976139;28;20507;-74
2022/06/21 02:46:36;;;;;;;1999.90;999.90;;;13.30;99.90;;;;;;4976332;28;20768;-74
2022/06/21 02:49:12;;;;;;;1999.90;999.90;;;13.30;99.90;;;;;;4976419;28;20452;-74
2022/06/21 02:51:43;;;;;;;1999.90;999.90;;;13.20;99.90;;;;;;4976334;28;20425;-74
2022/06/21 02:54:26;;;;;;;1999.90;999.90;;;13.20;99.90;;;;;;4976443;28;20507;-74
2022/06/21 02:57:13;;;;;;;1999.90;999.90;;;13.20;99.90;;;;;;4976327;28;20403;-74
2022/06/21 02:59:41;;;;;;;1999.90;999.90;;;13.20;99.90;;;;;;4976277;28;20409;-74
2022/06/21 03:02:13;;;;;;;1999.90;999.90;;;13.20;99.90;;;;;;4976382;28;20801;-74
2022/06/21 03:04:50;;;;;;;1999.90;999.90;;;13.20;99.90;;;;;;4976203;28;20410;-74
2022/06/21 03:07:26;;;;;;;1999.90;999.90;;;13.20;99.90;;;;;;4975941;28;20478;-74
2022/06/21 03:09:53;;;;;;;1999.90;999.90;;;13.20;99.90;;;;;;4975974;28;20544;-74
2022/06/21 03:12:22;;;;;;;1999.90;999.90;;;13.10;99.90;;;;;;4975986;28;20423;-74
2022/06/21 03:14:49;;;;;;;1999.90;999.90;;;13.10;99.90;;;;;;4976001;28;20414;-74
2022/06/21 03:17:22;;;;;;;1999.90;999.90;;;13.10;99.90;;;;;;4975755;28;20414;-74
2022/06/21 03:19:50;;;;;;;1999.90;999.90;;;13.00;99.90;;;;;;4975966;28;20415;-74
2022/06/21 03:22:31;;;;;;;1999.90;999.90;;;13.00;99.90;;;;;;4975761;28;20438;-74
2022/06/21 03:25:00;;;;;;;1999.90;999.90;;;13.00;99.90;;;;;;4975883;28;20401;-74
2022/06/21 03:27:47;;;;;;;1999.90;999.90;;;12.90;99.90;;;;;;4975537;28;20413;-74
2022/06/21 03:30:16;;;;;;;1999.90;999.90;;;12.70;99.90;;;;;;4975532;28;20515;-74
2022/06/21 03:32:42;;;;;;;1999.90;999.90;;;12.70;99.90;;;;;;4977301;28;20419;-74
2022/06/21 03:35:09;;;;;;;1999.90;999.90;;;12.70;99.90;;;;;;4978329;28;20414;-74
2022/06/21 03:37:37;;;;;;;1999.90;999.90;;;12.50;99.90;;;;;;4978607;28;20834;-74
2022/06/21 03:42:52;;;;;;;1999.90;999.90;;;12.40;99.90;;;;;;4977971;28;20414;-74
2022/06/21 03:45:31;;;;;;;1999.90;999.90;;;12.30;99.90;;;;;;4978906;28;20414;-74
2022/06/21 03:48:04;;;;;;;1999.90;999.90;;;12.30;99.90;;;;;;4978968;28;20868;-73
2022/06/21 03:50:34;;;;;;;1999.90;999.90;;;12.30;99.90;;;;;;4978273;28;20489;-74
2022/06/21 03:53:04;;;;;;;1999.90;999.90;;;12.40;99.90;;;;;;4977361;28;20431;-74
2022/06/21 03:55:53;;;;;;;1999.90;999.90;;;12.50;99.90;;;;;;4976561;28;20412;-74
2022/06/21 03:59:17;;;;;;;1999.90;999.90;;;12.50;99.90;;;;;;4976497;28;20801;-74
2022/06/21 04:01:53;;;;;;;1999.90;999.90;;;12.60;99.90;;;;;;4971254;28;20496;-73
2022/06/21 04:04:38;;;;;;;1999.90;999.90;;;12.70;99.90;;;;;;4977407;28;20406;-73
2022/06/21 04:07:21;;;;;;;1999.90;999.90;;;12.70;99.90;;;;;;4975764;28;20418;-74
2022/06/21 04:09:56;;;;;;;1999.90;999.90;;;12.70;99.90;;;;;;4977551;28;20681;-73
2022/06/21 04:12:34;;;;;;;1999.90;999.90;;;12.80;99.90;;;;;;4977018;28;20433;-74
2022/06/21 04:15:06;;;;;;;1999.90;999.90;;;12.80;99.90;;;;;;4977541;28;20396;-73
2022/06/21 04:17:49;;;;;;;1999.90;999.90;;;12.90;99.90;;;;;;4976704;28;20422;-74
2022/06/21 04:20:25;;;;;;;1999.90;999.90;;;12.90;99.90;;;;;;4974858;28;20411;-73
2022/06/21 04:23:03;;;;;;;1999.90;999.90;;;13.00;99.90;;;;;;4974800;28;20459;-73
2022/06/21 04:25:32;;;;;;;1999.90;999.90;;;13.00;99.90;;;;;;4974772;28;20413;-73
2022/06/21 04:28:07;;;;;;;1999.90;999.90;;;13.00;99.90;;;;;;4974446;28;20423;-73
2022/06/21 04:31:01;;;;;;;1999.90;999.90;;;13.10;99.90;;;;;;4974429;28;20475;-73
2022/06/21 04:33:40;;;;;;;1999.90;999.90;;;13.20;99.90;;;;;;4954683;28;20421;-73
2022/06/21 04:36:12;;;;;;;1999.90;999.90;;;13.30;99.90;;;;;;4974326;28;20427;-73
2022/06/21 04:38:45;;;;;;;1999.90;999.90;;;13.30;99.90;;;;;;4975603;28;20406;-73
2022/06/21 04:41:35;;;;;;;1999.90;999.90;;;13.40;99.90;;;;;;4975231;28;20441;-73
2022/06/21 04:44:10;;;;;;;1999.90;999.90;;;13.50;99.90;;;;;;4974235;28;20426;-73
2022/06/21 04:46:42;;;;;;;1999.90;999.90;;;13.50;99.90;;;;;;4975021;28;20778;-72
2022/06/21 04:49:19;;;;;;;1999.90;999.90;;;13.50;99.90;;;;;;4975395;28;20438;-73
2022/06/21 04:51:57;;;;;;;1999.90;999.90;;;13.50;99.90;;;;;;4973755;28;20524;-73
2022/06/21 04:54:25;;;;;;;1999.90;999.90;;;13.50;99.90;;;;;;4975094;28;20405;-73
2022/06/21 04:57:11;;;;;;;1999.90;999.90;;;13.50;99.90;;;;;;4974870;28;20884;-73
2022/06/21 04:59:44;;;;;;;1999.90;999.90;;;13.60;99.90;;;;;;4969122;28;20435;-74
2022/06/21 05:02:19;;;;;;;1999.90;999.90;;;13.60;99.90;;;;;;4975145;28;20524;-73
2022/06/21 05:04:47;;;;;;;1999.90;999.90;;;13.60;99.90;;;;;;4976856;28;20414;-73
2022/06/21 05:07:18;;;;;;;1999.90;999.90;;;13.70;99.90;;;;;;4976548;28;20506;-74
2022/06/21 05:09:45;;;;;;;1999.90;999.90;;;13.70;99.90;;;;;;4975580;28;20494;-72
2022/06/21 05:12:12;;;;;;;1999.90;999.90;;;13.70;99.90;;;;;;4976567;28;20432;-74
2022/06/21 05:14:44;;;;;;;1999.90;999.90;;;13.80;99.90;;;;;;4976407;28;20781;-74
2022/06/21 05:17:14;;;;;;;1999.90;999.90;;;13.90;99.90;;;;;;4975940;28;20402;-74
2022/06/21 05:19:43;;;;;;;1999.90;999.90;;;13.90;99.90;;;;;;4976733;28;20455;-74
2022/06/21 05:22:32;;;;;;;1999.90;999.90;;;14.10;99.90;;;;;;4976925;28;20456;-74
2022/06/21 05:25:00;;;;;;;1999.90;999.90;;;14.20;99.90;;;;;;4976821;28;20501;-74
2022/06/21 05:27:53;;;;;;;1999.90;999.90;;;14.20;99.90;;;;;;4976373;28;20498;-74
2022/06/21 05:30:22;;;;;;;1999.90;999.90;;;14.30;99.90;;;;;;4976438;28;20838;-73
2022/06/21 05:32:58;;;;;;;1999.90;999.90;;;14.50;99.90;;;;;;4977021;28;20426;-74
2022/06/21 05:35:27;;;;;;;1999.90;999.90;;;14.50;99.90;;;;;;4978147;28;20416;-74
2022/06/21 05:38:02;;;;;;;1999.90;999.90;;;14.60;99.90;;;;;;4977060;28;20502;-72
2022/06/21 05:40:51;;;;;;;1999.90;999.90;;;14.70;99.90;;;;;;4977135;28;20435;-74
2022/06/21 05:43:20;;;;;;;1999.90;999.90;;;14.80;99.90;;;;;;4976586;28;20448;-74
2022/06/21 05:46:05;;;;;;;1999.90;999.90;;;14.90;99.90;;;;;;4976145;28;20790;-74
2022/06/21 05:48:34;;;;;;;1999.90;999.90;;;15.00;99.90;;;;;;4976294;28;20493;-74
2022/06/21 05:51:03;;;;;;;1999.90;999.90;;;15.20;99.90;;;;;;4977207;28;20490;-74
2022/06/21 05:53:39;;;;;;;1999.90;999.90;;;15.30;99.90;;;;;;4976813;28;20420;-73
2022/06/21 05:56:10;;;;;;;1999.90;999.90;;;15.50;99.90;;;;;;4976439;28;20404;-73
2022/06/21 05:58:42;;;;;;;1999.90;999.90;;;15.60;99.90;;;;;;4976122;28;20406;-74
2022/06/21 06:01:25;;;;;;;1999.90;999.90;;;15.60;99.90;;;;;;4976487;28;20941;-74
2022/06/21 06:04:05;;;;;;;1999.90;999.90;;;15.70;99.90;;;;;;4975333;28;20417;-74
2022/06/21 06:06:35;;;;;;;1999.90;999.90;;;15.80;99.90;;;;;;4974993;28;20409;-74
2022/06/21 06:09:34;;;;;;;1999.90;999.90;;;15.80;99.90;;;;;;4975581;28;20821;-74
2022/06/21 06:12:05;;;;;;;1999.90;999.90;;;15.90;99.90;;;;;;4976050;28;20461;-75
2022/06/21 06:14:46;;;;;;;1999.90;999.90;;;16.00;99.90;;;;;;4976229;28;20882;-74
2022/06/21 06:17:20;;;;;;;1999.90;999.90;;;16.10;99.90;;;;;;4976108;28;20435;-74
2022/06/21 06:20:06;;;;;;;1999.90;999.90;;;16.20;99.90;;;;;;4975734;28;20409;-74
2022/06/21 06:22:35;;;;;;;1999.90;999.90;;;16.20;99.90;;;;;;4975773;28;21134;-74
2022/06/21 06:25:29;;;;;;;1999.90;999.90;;;16.30;99.90;;;;;;4976062;28;20406;-74
2022/06/21 06:28:20;;;;;;;1999.90;999.90;;;16.40;99.90;;;;;;4975932;28;20444;-74
2022/06/21 06:31:00;;;;;;;1999.90;999.90;;;16.60;99.90;;;;;;4971301;28;20509;-74
2022/06/21 06:33:41;;;;;;;1999.90;999.90;;;16.70;99.90;;;;;;4966596;28;20427;-74
2022/06/21 06:36:14;;;;;;;1999.90;999.90;;;16.80;99.90;;;;;;4976142;28;20420;-75
2022/06/21 06:38:41;;;;;;;1999.90;999.90;;;16.90;99.90;;;;;;4975917;28;20397;-74
2022/06/21 06:41:42;;;;;;;1999.90;999.90;;;17.00;99.90;;;;;;4975187;28;20948;-74
2022/06/21 06:44:12;;;;;;;1999.90;999.90;;;17.10;99.90;;;;;;4975603;28;20463;-74
2022/06/21 06:46:43;;;;;;;1999.90;999.90;;;17.30;99.90;;;;;;4977358;28;20398;-74
2022/06/21 06:49:34;;;;;;;1999.90;999.90;;;17.40;99.90;;;;;;4976635;28;20460;-74
2022/06/21 06:52:22;;;;;;;1999.90;999.90;;;17.60;99.90;;;;;;4975633;28;20425;-74
2022/06/21 06:54:59;;;;;;;1999.90;999.90;;;17.70;99.90;;;;;;4975507;28;20418;-74
2022/06/21 06:57:53;;;;;;;1999.90;999.90;;;17.90;99.90;;;;;;4975641;28;20380;-74
2022/06/21 07:00:24;;;;;;;1999.90;999.90;;;18.00;99.90;;;;;;4975891;28;20495;-75
2022/06/21 07:03:11;;;;;;;1999.90;999.90;;;18.20;99.90;;;;;;4975811;28;20906;-74
2022/06/21 07:05:40;;;;;;;1999.90;999.90;;;18.30;99.90;;;;;;4975436;28;20973;-75
2022/06/21 07:08:36;;;;;;;1999.90;999.90;;;18.40;99.90;;;;;;4975372;28;20452;-74
2022/06/21 07:11:23;;;;;;;1999.90;999.90;;;18.50;99.90;;;;;;4975317;28;20429;-75
2022/06/21 07:13:48;;;;;;;1999.90;999.90;;;18.60;99.90;;;;;;4975456;28;20401;-74
2022/06/21 07:16:19;;;;;;;1999.90;999.90;;;18.60;99.90;;;;;;4974985;28;20457;-74
2022/06/21 07:18:51;;;;;;;1999.90;999.90;;;18.60;99.90;;;;;;4978997;28;20176;-75
2022/06/21 07:21:19;;;;;;;1999.90;999.90;;;18.60;99.90;;;;;;4979294;28;20450;-73
2022/06/21 07:23:45;;;;;;;1999.90;999.90;;;18.70;99.90;;;;;;4979378;28;20769;-74
2022/06/21 07:26:17;;;;;;;1999.90;999.90;;;18.80;99.90;;;;;;4978568;28;20442;-74
2022/06/21 07:29:01;;;;;;;1999.90;999.90;;;18.90;99.90;;;;;;4978816;28;20545;-75
2022/06/21 07:31:35;;;;;;;1999.90;999.90;;;19.00;99.90;;;;;;4979141;28;20858;-75
2022/06/21 07:34:13;;;;;;;1999.90;999.90;;;19.10;99.90;;;;;;4977745;28;20413;-71
2022/06/21 07:37:03;;;;;;;1999.90;999.90;;;19.20;99.90;;;;;;4994073;28;20467;-74
2022/06/21 07:39:49;;;;;;;1999.90;999.90;;;19.30;99.90;;;;;;4993871;28;20414;-74
2022/06/21 07:42:25;;;;;;;1999.90;999.90;;;19.50;99.90;;;;;;4994199;28;20431;-72
2022/06/21 07:45:21;;;;;;;1999.90;999.90;;;19.60;99.90;;;;;;4997329;28;20400;-73
2022/06/21 07:48:19;;;;;;;1999.90;999.90;;;19.80;99.90;;;;;;4983181;28;20425;-75
2022/06/21 07:51:04;;;;;;;1999.90;999.90;;;20.00;99.90;;;;;;4952045;28;20532;-74
2022/06/21 07:53:34;;;;;;;1999.90;999.90;;;20.10;99.90;;;;;;4975200;28;20398;-75
2022/06/21 07:56:08;;;;;;;1999.90;999.90;;;20.10;99.90;;;;;;4974251;28;20391;-75
2022/06/21 07:58:57;;;;;;;1999.90;999.90;;;20.00;99.90;;;;;;4975095;28;20417;-76
2022/06/21 08:07:26;;;;;;;1999.90;999.90;;;20.30;99.90;;;;;;4976207;28;20739;-77
2022/06/21 08:10:30;;;;;;;1999.90;999.90;;;20.50;99.90;;;;;;4978483;28;20428;-77
2022/06/21 08:12:56;;;;;;;1999.90;999.90;;;20.70;99.90;;;;;;4977178;28;20463;-76
2022/06/21 08:15:27;;;;;;;1999.90;999.90;;;20.80;99.90;;;;;;4971899;28;20501;-75
2022/06/21 08:17:58;;;;;;;1999.90;999.90;;;21.00;99.90;;;;;;4973040;28;20174;-75
2022/06/21 08:20:33;;;;;;;1999.90;999.90;;;21.10;99.90;;;;;;4970704;28;20492;-75
2022/06/21 08:23:08;;;;;;;1999.90;999.90;;;21.20;99.90;;;;;;4970222;28;20489;-75
2022/06/21 08:25:42;;;;;;;1999.90;999.90;;;21.30;99.90;;;;;;4971043;28;20397;-74
2022/06/21 08:28:41;;;;;;;1999.90;999.90;;;21.40;99.90;;;;;;4971259;28;20397;-77
2022/06/21 08:31:23;;;;;;;1999.90;999.90;;;21.60;99.90;;;;;;4966652;28;20452;-73
2022/06/21 08:34:30;;;;;;;1999.90;999.90;;;21.70;99.90;;;;;;4970082;28;20760;-75
2022/06/21 08:37:01;;;;;;;1999.90;999.90;;;21.90;99.90;;;;;;4971598;28;20490;-73
2022/06/21 08:39:49;;;;;;;1999.90;999.90;;;22.00;99.90;;;;;;4973402;28;20392;-74
2022/06/21 08:42:53;;;;;;;1999.90;999.90;;;22.00;99.90;;;;;;4991410;28;20458;-75
2022/06/21 08:45:43;;;;;;;1999.90;999.90;;;22.00;99.90;;;;;;4911192;29;20465;-74
2022/06/21 08:48:36;;;;;;;1999.90;999.90;;;22.00;99.90;;;;;;4967876;28;20447;-75
2022/06/21 08:51:04;;;;;;;1999.90;999.90;;;22.20;99.90;;;;;;4971227;28;20539;-74
2022/06/21 08:53:51;;;;;;;1999.90;999.90;;;22.50;99.90;;;;;;4970352;28;20482;-74
2022/06/21 08:56:34;;;;;;;1999.90;999.90;;;22.70;99.90;;;;;;4973733;28;20407;-73
2022/06/21 08:59:13;;;;;;;1999.90;999.90;;;22.80;99.90;;;;;;4973622;28;20382;-72
2022/06/21 09:01:59;;;;;;;1999.90;999.90;;;23.10;99.90;;;;;;4977010;28;20468;-69
2022/06/21 09:04:48;;;;;;;1999.90;999.90;;;23.40;99.90;;;;;;4981029;28;20433;-72
2022/06/21 09:07:39;;;;;;;1999.90;999.90;;;23.50;99.90;;;;;;4969637;28;20973;-72
2022/06/21 09:10:13;;;;;;;1999.90;999.90;;;23.50;99.60;;;;;;4969793;28;20494;-72
2022/06/21 09:12:51;;;;;;;1999.90;999.90;;;23.60;99.00;;;;;;4969729;28;20839;-74
2022/06/21 09:15:53;;;;;;;1999.90;999.90;;;23.60;96.10;;;;;;4970744;28;20392;-70
2022/06/21 09:18:34;;;;;;;1999.90;999.90;;;23.60;96.00;;;;;;4968736;28;20390;-72
2022/06/21 09:21:21;;;;;;;1999.90;999.90;;;23.60;93.10;;;;;;4969411;28;20498;-72
2022/06/21 09:23:57;;;;;;;1999.90;999.90;;;23.60;93.20;;;;;;4969114;28;20854;-72
2022/06/21 09:26:53;;;;;;;1999.90;999.90;;;23.90;93.40;;;;;;4968769;28;20388;-72
2022/06/21 09:29:24;;;;;;;1999.90;999.90;;;24.10;91.20;;;;;;4968531;28;20431;-71
2022/06/21 09:32:00;;;;;;;1999.90;999.90;;;23.90;89.70;;;;;;4968993;28;20972;-73
2022/06/21 09:34:42;;;;;;;1999.90;999.90;;;23.90;90.90;;;;;;4969192;28;20826;-73
2022/06/21 09:37:22;;;;;;;1999.90;999.90;;;23.90;90.10;;;;;;4968158;28;20522;-72
2022/06/21 09:39:56;;;;;;;1999.90;999.90;;;23.70;88.60;;;;;;4968031;28;20431;-71
2022/06/21 09:42:24;;;;;;;1999.90;999.90;;;23.60;89.80;;;;;;4969135;28;20460;-73
2022/06/21 09:45:10;;;;;;;1999.90;999.90;;;23.60;90.00;;;;;;4968506;28;20512;-72
2022/06/21 09:47:39;;;;;;;1999.90;999.90;;;23.70;91.40;;;;;;4947436;28;20429;-72
2022/06/21 09:50:42;;;;;;;1999.90;999.90;;;23.70;85.10;;;;;;4968307;28;20432;-72
2022/06/21 09:53:41;;;;;;;1999.90;999.90;;;23.70;88.10;;;;;;4968704;28;20941;-72
2022/06/21 09:56:29;;;;;;;1999.90;999.90;;;23.90;91.00;;;;;;4960780;28;20407;-72
2022/06/21 09:59:05;;;;;;;1999.90;999.90;;;24.10;84.40;;;;;;4968798;28;20423;-72
2022/06/21 10:01:52;;;;;;;1999.90;999.90;;;24.20;88.10;;;;;;4968869;28;20425;-72
2022/06/21 10:04:49;;;;;;;1999.90;999.90;;;24.30;85.40;;;;;;4969008;28;20413;-73
2022/06/21 10:07:46;;;;;;;1999.90;999.90;;;24.50;82.70;;;;;;4968181;28;20410;-72
2022/06/21 10:10:31;;;;;;;1999.90;999.90;;;24.60;79.00;;;;;;4968552;28;20524;-71
2022/06/21 10:13:14;;;;;;;1999.90;999.90;;;24.50;74.80;;;;;;4968385;28;20414;-72
2022/06/21 10:15:49;;;;;;;1999.90;999.90;;;24.60;73.30;;;;;;4968133;28;20441;-71
2022/06/21 10:18:27;;;;;;;1999.90;999.90;;;24.70;72.30;;;;;;4968215;28;20421;-72
2022/06/21 10:21:26;;;;;;;1999.90;999.90;;;24.80;72.70;;;;;;4967962;28;20437;-72
2022/06/21 10:24:19;;;;;;;1999.90;999.90;;;24.90;72.90;;;;;;4969051;28;20387;-72
2022/06/21 10:27:21;;;;;;;1999.90;999.90;;;24.80;68.10;;;;;;4968124;28;21184;-71
2022/06/21 10:30:06;;;;;;;1999.90;999.90;;;24.90;66.10;;;;;;4967687;28;21101;-72
2022/06/21 10:32:50;;;;;;;1999.90;999.90;;;25.00;70.00;;;;;;4968340;28;20414;-72
2022/06/21 10:35:25;;;;;;;1999.90;999.90;;;25.00;65.80;;;;;;4971459;28;20398;-72
2022/06/21 10:38:18;;;;;;;1999.90;999.90;;;24.80;66.20;;;;;;4968213;28;20413;-71
2022/06/21 10:40:44;;;;;;;1999.90;999.90;;;24.70;66.40;;;;;;4967823;28;20812;-71
2022/06/21 10:43:40;;;;;;;1999.90;999.90;;;24.60;66.70;;;;;;4967713;28;20410;-71
2022/06/21 10:46:15;;;;;;;1999.90;999.90;;;24.50;66.60;;;;;;4968144;28;20253;-72
2022/06/21 10:48:40;;;;;;;1999.90;999.90;;;24.50;65.00;;;;;;4968732;28;20380;-72
2022/06/21 10:51:42;;;;;;;1999.90;999.90;;;24.40;66.50;;;;;;4969040;28;20487;-71
2022/06/21 10:54:52;;;;;;;1999.90;999.90;;;24.40;64.30;;;;;;5012711;23;20225;-69
2022/06/21 10:57:37;;;;;;;1999.90;999.90;;;24.60;58.20;;;;;;4952309;28;20448;-68
2022/06/21 11:03:25;;;;;;;1999.90;999.90;;;25.10;64.90;;;;;;4972578;28;20488;-68
2022/06/21 11:05:51;;;;;;;1999.90;999.90;;;25.50;64.20;;;;;;4947073;28;20509;-68
2022/06/21 11:08:38;;;;;;;1999.90;999.90;;;25.90;62.10;;;;;;4953212;28;21069;-68
2022/06/21 11:11:27;;;;;;;1999.90;999.90;;;26.20;56.70;;;;;;4952888;28;20213;-68
2022/06/21 11:14:01;;;;;;;1999.90;999.90;;;26.20;55.40;;;;;;4952553;28;20517;-69
2022/06/21 11:16:52;;;;;;;1999.90;999.90;;;26.40;54.80;;;;;;4949706;28;20490;-68
2022/06/21 11:19:37;;;;;;;1999.90;999.90;;;26.50;51.40;;;;;;4950533;28;20406;-68
2022/06/21 11:22:16;;;;;;;1999.90;999.90;;;26.80;51.50;;;;;;4951990;28;20410;-68
2022/06/21 11:25:15;;;;;;;1999.90;999.90;;;26.90;48.00;;;;;;4952921;28;20530;-68
2022/06/21 11:27:59;;;;;;;1999.90;999.90;;;26.90;47.00;;;;;;4952354;28;20425;-68
2022/06/21 11:30:28;;;;;;;1999.90;999.90;;;27.10;48.00;;;;;;4952943;28;20540;-69
2022/06/21 11:33:27;;;;;;;1999.90;999.90;;;27.40;46.70;;;;;;4951878;28;20422;-67
2022/06/21 11:36:11;;;;;;;1999.90;999.90;;;27.70;45.30;;;;;;4951815;28;20426;-68
2022/06/21 11:38:46;;;;;;;1999.90;999.90;;;27.80;44.00;;;;;;4952101;28;20784;-68
2022/06/21 11:44:37;;;;;;;1999.90;999.90;;;28.50;37.30;;;;;;4952178;28;20525;-69
2022/06/21 11:47:34;;;;;;;1999.90;999.90;;;28.60;39.70;;;;;;4951977;29;20461;-69
2022/06/21 11:50:17;;;;;;;1999.90;999.90;;;28.60;38.70;;;;;;4952168;28;20861;-70
2022/06/21 11:53:00;;;;;;;1999.90;999.90;;;28.60;39.20;;;;;;4951824;28;20410;-69
2022/06/21 11:55:32;;;;;;;1999.90;999.90;;;28.70;39.80;;;;;;4952673;29;20426;-69
2022/06/21 11:58:09;;;;;;;1999.90;999.90;;;28.90;37.00;;;;;;4955957;28;20415;-69
2022/06/21 12:01:00;;;;;;;1999.90;999.90;;;29.00;35.40;;;;;;4956297;28;20429;-71
2022/06/21 12:03:54;;;;;;;1999.90;999.90;;;28.80;34.00;;;;;;4929045;28;20454;-69
2022/06/21 12:06:42;;;;;;;1999.90;999.90;;;28.70;35.10;;;;;;4956642;28;20426;-68
2022/06/21 12:09:13;;;;;;;1999.90;999.90;;;28.90;33.80;;;;;;4958298;28;20457;-69
2022/06/21 12:12:01;;;;;;;1999.90;999.90;;;29.50;34.10;;;;;;4957897;28;20410;-68
2022/06/21 12:14:36;;;;;;;1999.90;999.90;;;29.50;32.10;;;;;;4955964;28;20542;-68
2022/06/21 12:17:22;;;;;;;1999.90;999.90;;;29.20;32.00;;;;;;4954775;29;20406;-68
2022/06/21 12:20:01;;;;;;;1999.90;999.90;;;29.10;30.00;;;;;;4954292;28;20418;-68
2022/06/21 12:22:37;;;;;;;1999.90;999.90;;;28.80;31.20;;;;;;4955109;28;20406;-68
2022/06/21 12:25:04;;;;;;;1999.90;999.90;;;28.60;30.80;;;;;;4955076;28;20426;-68
2022/06/21 12:27:29;;;;;;;1999.90;999.90;;;28.30;30.80;;;;;;4954130;28;20527;-68
2022/06/21 12:30:22;;;;;;;1999.90;999.90;;;28.20;32.50;;;;;;4955035;28;20450;-68
2022/06/21 12:32:50;;;;;;;1999.90;999.90;;;28.50;35.50;;;;;;4954667;28;20175;-68
2022/06/21 12:35:30;;;;;;;1999.90;999.90;;;28.80;32.60;;;;;;4954700;28;20553;-69
2022/06/21 12:37:56;;;;;;;1999.90;999.90;;;29.10;31.20;;;;;;4954336;28;20485;-68
2022/06/21 12:40:35;;;;;;;1999.90;999.90;;;29.30;31.80;;;;;;4954441;28;20418;-68
2022/06/21 12:43:22;;;;;;;1999.90;999.90;;;29.60;31.00;;;;;;4954173;28;20791;-68
2022/06/21 12:45:53;;;;;;;1999.90;999.90;;;29.80;30.60;;;;;;4954834;28;20505;-68
2022/06/21 12:48:37;;;;;;;1999.90;999.90;;;30.20;32.10;;;;;;4954246;29;20411;-68
2022/06/21 12:51:18;;;;;;;1999.90;999.90;;;30.70;30.10;;;;;;4954235;29;20417;-68
2022/06/21 12:53:56;;;;;;;1999.90;999.90;;;31.50;29.80;;;;;;4954354;28;20442;-68
2022/06/21 12:56:39;;;;;;;1999.90;999.90;;;32.40;26.30;;;;;;4954186;29;20523;-68
2022/06/21 12:59:39;;;;;;;1999.90;999.90;;;32.20;25.90;;;;;;4953855;29;20417;-68
2022/06/21 13:02:14;;;;;;;1999.90;999.90;;;31.90;27.20;;;;;;4954591;28;20411;-68
2022/06/21 13:04:54;;;;;;;1999.90;999.90;;;32.00;27.70;;;;;;4953841;28;20450;-68
2022/06/21 13:08:07;;;;;;;1999.90;999.90;;;31.60;25.40;;;;;;4954218;29;20928;-69